Time;durP1;ratioP1;P1;durP2;ratioP2;P2;SDS_P1;SDS_P2;PMS_P1;PMS_P2;Temp;Humidity;BMP_temperature;BMP_pressure;BME280_temperature;BME280_humidity;BME280_pressure;Samples;Min_cycle;Max_cycle;Signal;HPM_P1;HPM_P2
2022/11/02 00:01:19;;;;;;;8.98;2.10;;;;;;;15.44;100.00;101301.84;5273819;28;20059;-73
2022/11/02 00:03:51;;;;;;;8.82;1.90;;;;;;;15.26;100.00;101306.28;5273997;28;20036;-73
2022/11/02 00:06:22;;;;;;;9.98;2.38;;;;;;;15.29;100.00;101298.91;5274325;28;20025;-73
2022/11/02 00:08:53;;;;;;;11.95;2.92;;;;;;;15.31;100.00;101296.13;5273507;28;20027;-73
2022/11/02 00:11:24;;;;;;;8.68;1.75;;;;;;;15.28;100.00;101299.06;5274087;28;20025;-73
2022/11/02 00:13:56;;;;;;;9.82;2.00;;;;;;;15.29;100.00;101317.38;5272999;28;20032;-73
2022/11/02 00:16:27;;;;;;;15.68;3.05;;;;;;;15.29;100.00;101300.72;5273454;28;20024;-73
2022/11/02 00:19:00;;;;;;;9.10;2.03;;;;;;;15.26;100.00;101295.72;5274233;28;20054;-72
2022/11/02 00:21:31;;;;;;;9.07;1.70;;;;;;;15.33;100.00;101302.06;5272652;28;20111;-72
2022/11/02 00:24:04;;;;;;;8.73;2.08;;;;;;;15.32;100.00;101298.59;5273815;28;20139;-72
2022/11/02 00:26:36;;;;;;;7.78;2.42;;;;;;;15.32;100.00;101308.34;5274405;28;20024;-72
2022/11/02 00:29:08;;;;;;;10.10;1.98;;;;;;;15.32;100.00;101301.25;5273667;28;20043;-72
2022/11/02 00:31:39;;;;;;;10.40;1.90;;;;;;;15.36;100.00;101300.94;5272759;28;20046;-72
2022/11/02 00:34:10;;;;;;;7.82;1.98;;;;;;;15.40;100.00;101310.22;5273311;28;20039;-72
2022/11/02 00:36:41;;;;;;;12.50;2.30;;;;;;;15.42;100.00;101301.19;5273198;28;20351;-72
2022/11/02 00:39:13;;;;;;;11.05;2.42;;;;;;;15.39;100.00;101305.94;5274485;28;20035;-72
2022/11/02 00:41:44;;;;;;;11.23;2.40;;;;;;;15.41;100.00;101303.97;5273182;28;20394;-72
2022/11/02 00:44:16;;;;;;;7.28;1.75;;;;;;;15.33;100.00;101309.97;5274983;28;20124;-72
2022/11/02 00:46:47;;;;;;;7.72;1.50;;;;;;;15.27;100.00;101311.44;5274023;28;20119;-72
2022/11/02 00:49:18;;;;;;;8.52;2.20;;;;;;;15.28;100.00;101313.09;5272862;28;20033;-72
2022/11/02 00:51:49;;;;;;;6.78;1.50;;;;;;;15.19;100.00;101308.72;5273393;28;20020;-72
2022/11/02 00:54:21;;;;;;;7.63;1.50;;;;;;;15.17;100.00;101321.22;5272664;28;20048;-72
2022/11/02 00:56:52;;;;;;;8.95;2.00;;;;;;;15.08;100.00;101330.03;5272271;28;20049;-72
2022/11/02 00:59:23;;;;;;;5.95;1.50;;;;;;;15.05;100.00;101317.94;5273222;28;20039;-72
2022/11/02 01:01:54;;;;;;;9.32;1.58;;;;;;;15.09;100.00;101323.75;5274270;28;20024;-72
2022/11/02 01:04:26;;;;;;;5.95;1.40;;;;;;;14.99;100.00;101334.34;5271397;28;20490;-72
2022/11/02 01:06:57;;;;;;;6.80;1.63;;;;;;;15.04;100.00;101328.66;5272267;28;20032;-72
2022/11/02 01:09:29;;;;;;;7.93;1.60;;;;;;;14.97;100.00;101335.50;5274932;28;20489;-72
2022/11/02 01:12:00;;;;;;;9.73;1.80;;;;;;;14.84;100.00;101341.91;5273233;28;20047;-72
2022/11/02 01:14:31;;;;;;;6.00;1.48;;;;;;;14.81;100.00;101336.09;5272832;28;20361;-72
2022/11/02 01:17:03;;;;;;;6.20;1.65;;;;;;;14.78;100.00;101357.53;5273600;28;20059;-72
2022/11/02 01:19:34;;;;;;;6.57;1.60;;;;;;;14.75;100.00;101353.34;5274679;28;20016;-72
2022/11/02 01:22:06;;;;;;;6.60;1.30;;;;;;;14.71;100.00;101341.44;5272895;28;20036;-72
2022/11/02 01:24:37;;;;;;;8.98;1.63;;;;;;;14.69;100.00;101353.09;5272254;28;20387;-72
2022/11/02 01:27:09;;;;;;;8.80;1.80;;;;;;;14.63;100.00;101362.44;5273450;28;20024;-72
2022/11/02 01:29:40;;;;;;;8.10;1.60;;;;;;;14.59;100.00;101369.78;5273555;28;20056;-72
2022/11/02 01:32:12;;;;;;;8.05;1.98;;;;;;;14.56;100.00;101356.06;5273218;28;20085;-72
2022/11/02 01:34:43;;;;;;;9.65;1.63;;;;;;;14.56;100.00;101356.91;5274997;28;20021;-72
2022/11/02 01:37:14;;;;;;;9.40;1.65;;;;;;;14.50;100.00;101354.00;5276658;28;20024;-72
2022/11/02 01:39:46;;;;;;;7.28;1.45;;;;;;;14.45;100.00;101359.66;5275556;28;20055;-72
2022/11/02 01:42:22;;;;;;;6.10;1.50;;;;;;;14.50;100.00;101368.00;5275419;28;20089;-72
2022/11/02 01:44:54;;;;;;;8.25;1.88;;;;;;;14.34;100.00;101373.00;5277420;28;20059;-72
2022/11/02 01:47:30;;;;;;;8.18;1.50;;;;;;;14.32;100.00;101369.69;5276812;28;20128;-72
2022/11/02 01:50:07;;;;;;;8.23;1.58;;;;;;;14.31;100.00;101378.56;5276581;28;20020;-72
2022/11/02 01:52:40;;;;;;;4.25;1.30;;;;;;;14.23;100.00;101374.00;5273933;28;20031;-72
2022/11/02 01:55:21;;;;;;;5.53;1.50;;;;;;;14.30;100.00;101366.38;5276703;28;20093;-72
2022/11/02 01:57:56;;;;;;;7.05;1.80;;;;;;;14.34;100.00;101378.28;5275860;28;20374;-71
2022/11/02 02:00:27;;;;;;;6.50;1.80;;;;;;;14.34;100.00;101373.00;5275807;28;20024;-72
2022/11/02 02:03:10;;;;;;;5.43;1.15;;;;;;;14.44;100.00;101375.63;5275607;28;20512;-72
2022/11/02 02:05:46;;;;;;;7.47;1.42;;;;;;;14.37;100.00;101364.81;5278546;28;20064;-72
2022/11/02 02:08:20;;;;;;;6.15;1.38;;;;;;;14.36;100.00;101387.72;5274911;28;20032;-72
2022/11/02 02:10:55;;;;;;;5.38;1.30;;;;;;;14.36;100.00;101369.28;5276327;28;20028;-72
2022/11/02 02:13:27;;;;;;;6.97;1.52;;;;;;;14.25;100.00;101371.22;5275190;28;20459;-72
2022/11/02 02:16:11;;;;;;;6.45;1.77;;;;;;;14.34;100.00;101362.47;5277131;28;20067;-72
2022/11/02 02:18:50;;;;;;;7.07;1.65;;;;;;;14.29;100.00;101370.81;5275977;28;20449;-72
2022/11/02 02:22:05;;;;;;;6.63;1.50;;;;;;;14.41;100.00;101376.75;5275152;28;20035;-72
2022/11/02 02:25:23;;;;;;;6.80;1.88;;;;;;;14.34;100.00;101380.91;5275719;28;20512;-72
2022/11/02 02:28:18;;;;;;;5.40;1.40;;;;;;;14.11;100.00;101388.28;5274518;28;20059;-72
2022/11/02 02:30:55;;;;;;;8.07;1.83;;;;;;;14.11;100.00;101385.66;5274308;28;20436;-72
2022/11/02 02:33:34;;;;;;;8.77;1.90;;;;;;;14.05;100.00;101376.53;5274827;28;20032;-72
2022/11/02 02:36:19;;;;;;;9.63;1.77;;;;;;;14.04;100.00;101379.28;5275355;28;20031;-72
2022/11/02 02:39:03;;;;;;;8.68;1.95;;;;;;;14.05;100.00;101381.78;5276121;28;20028;-72
2022/11/02 02:41:40;;;;;;;5.07;1.58;;;;;;;13.92;100.00;101375.13;5275431;28;20024;-72
2022/11/02 02:44:17;;;;;;;7.50;1.90;;;;;;;13.64;100.00;101351.28;5276077;28;20033;-72
2022/11/02 02:47:01;;;;;;;8.68;2.15;;;;;;;13.90;100.00;101384.97;5269412;28;20028;-72
2022/11/02 02:49:37;;;;;;;8.98;2.10;;;;;;;13.83;100.00;101374.19;5273868;28;20056;-72
2022/11/02 02:52:11;;;;;;;7.00;2.47;;;;;;;13.74;100.00;101388.97;5276895;28;20470;-72
2022/11/02 02:54:46;;;;;;;6.97;1.77;;;;;;;13.74;100.00;101377.63;5274327;28;20037;-72
2022/11/02 02:57:20;;;;;;;9.82;2.08;;;;;;;13.77;100.00;101401.06;5275588;28;20491;-72
2022/11/02 02:59:53;;;;;;;8.98;1.85;;;;;;;13.73;100.00;101389.13;5273896;28;20460;-72
2022/11/02 03:02:34;;;;;;;12.85;2.35;;;;;;;13.80;100.00;101387.63;5273756;28;20023;-72
2022/11/02 03:05:32;;;;;;;12.27;2.78;;;;;;;13.83;100.00;101397.88;5274050;28;20029;-72
2022/11/02 03:08:07;;;;;;;11.38;2.20;;;;;;;13.75;100.00;101392.44;5274610;28;20021;-72
2022/11/02 03:10:47;;;;;;;11.90;3.00;;;;;;;13.79;100.00;101407.84;5274294;28;20036;-72
2022/11/02 03:13:47;;;;;;;6.90;1.77;;;;;;;13.86;100.00;101381.78;5275248;28;20417;-72
2022/11/02 03:16:42;;;;;;;7.78;2.10;;;;;;;13.84;100.00;101403.00;5273919;28;20027;-72
2022/11/02 03:19:25;;;;;;;8.13;2.08;;;;;;;13.80;100.00;101401.59;5274570;28;20526;-72
2022/11/02 03:22:07;;;;;;;7.65;2.17;;;;;;;13.72;100.00;101398.84;5275120;28;20024;-72
2022/11/02 03:25:01;;;;;;;8.32;1.75;;;;;;;13.92;100.00;101402.31;5275601;28;20032;-71
2022/11/02 03:27:47;;;;;;;13.43;3.13;;;;;;;13.82;100.00;101410.19;5273540;28;20058;-71
2022/11/02 03:30:22;;;;;;;16.05;3.13;;;;;;;13.76;100.00;101413.38;5275480;28;20512;-72
2022/11/02 03:33:13;;;;;;;10.60;2.15;;;;;;;13.92;100.00;101427.81;5274025;28;20085;-71
2022/11/02 03:35:54;;;;;;;11.00;2.08;;;;;;;13.76;100.00;101418.66;5274849;28;20025;-72
2022/11/02 03:38:41;;;;;;;8.23;1.75;;;;;;;13.84;100.00;101417.97;5274161;28;20067;-72
2022/11/02 03:41:18;;;;;;;9.63;2.40;;;;;;;13.74;100.00;101409.22;5274024;28;20269;-72
2022/11/02 03:43:58;;;;;;;9.55;2.15;;;;;;;13.74;100.00;101410.03;5273275;28;20028;-72
2022/11/02 03:46:32;;;;;;;15.27;3.08;;;;;;;13.67;100.00;101424.72;5273077;28;20393;-72
2022/11/02 03:49:09;;;;;;;11.27;2.22;;;;;;;13.69;100.00;101433.34;5274328;28;20146;-72
2022/11/02 03:51:44;;;;;;;11.77;3.05;;;;;;;13.73;100.00;101436.53;5274601;28;20028;-72
2022/11/02 03:54:18;;;;;;;12.20;2.72;;;;;;;13.68;100.00;101436.13;5272822;28;20509;-72
2022/11/02 03:56:55;;;;;;;11.20;2.63;;;;;;;13.69;100.00;101443.88;5273835;28;20036;-72
2022/11/02 03:59:30;;;;;;;11.45;3.05;;;;;;;13.68;100.00;101438.75;5274793;28;20037;-72
2022/11/02 04:02:01;;;;;;;10.73;2.63;;;;;;;13.65;100.00;101454.81;5273875;28;20071;-72
2022/11/02 04:04:33;;;;;;;10.43;2.53;;;;;;;13.65;100.00;101460.06;5273443;28;20806;-72
2022/11/02 04:07:04;;;;;;;7.90;2.15;;;;;;;13.64;100.00;101467.16;5273825;28;20477;-72
2022/11/02 04:09:35;;;;;;;12.32;2.10;;;;;;;13.57;100.00;101464.22;5274017;28;20028;-72
2022/11/02 04:14:57;;;;;;;9.98;2.58;;;;;;;13.52;100.00;101466.38;5274332;28;20028;-71
2022/11/02 04:20:18;;;;;;;15.73;2.85;;;;;;;13.48;100.00;101469.44;5274089;28;20509;-71
2022/11/02 04:25:38;;;;;;;14.73;2.95;;;;;;;13.50;100.00;101475.41;5275221;28;20032;-71
2022/11/02 04:28:10;;;;;;;11.48;2.65;;;;;;;13.45;100.00;101481.09;5271674;28;20033;-72
2022/11/02 04:30:41;;;;;;;10.57;2.67;;;;;;;13.47;100.00;101489.66;5273407;28;20029;-72
2022/11/02 04:36:05;;;;;;;13.93;2.40;;;;;;;13.49;100.00;101497.44;5273923;28;20036;-72
2022/11/02 04:38:39;;;;;;;10.63;2.33;;;;;;;13.46;100.00;101509.06;5271368;28;20887;-72
2022/11/02 04:44:04;;;;;;;13.27;2.92;;;;;;;13.42;100.00;101520.81;5272637;28;20036;-72
2022/11/02 04:46:36;;;;;;;10.68;2.95;;;;;;;13.41;100.00;101518.31;5272272;28;20056;-72
2022/11/02 04:49:09;;;;;;;13.18;2.20;;;;;;;13.45;100.00;101530.22;5273441;28;20366;-72
2022/11/02 04:51:40;;;;;;;9.85;2.45;;;;;;;13.45;100.00;101536.34;5273359;28;20021;-71
2022/11/02 04:54:12;;;;;;;11.43;2.33;;;;;;;13.48;100.00;101540.50;5273401;28;20406;-70
2022/11/02 04:56:43;;;;;;;12.50;2.65;;;;;;;13.45;100.00;101531.09;5274024;28;20128;-70
2022/11/02 04:59:14;;;;;;;12.52;2.88;;;;;;;13.45;100.00;101546.03;5272845;28;20035;-70
2022/11/02 05:01:45;;;;;;;12.13;2.85;;;;;;;13.43;100.00;101547.97;5272174;28;20032;-71
2022/11/02 05:04:17;;;;;;;10.95;2.40;;;;;;;13.39;100.00;101535.06;5273085;28;20036;-71
2022/11/02 05:06:48;;;;;;;14.15;2.72;;;;;;;13.43;100.00;101551.44;5272735;28;20150;-70
2022/11/02 05:09:19;;;;;;;10.38;2.45;;;;;;;13.53;100.00;101556.75;5277151;28;20032;-70
2022/11/02 05:11:50;;;;;;;13.38;2.92;;;;;;;13.60;100.00;101563.16;5278090;28;20078;-70
2022/11/02 05:14:22;;;;;;;11.32;2.67;;;;;;;13.54;100.00;101553.16;5277629;28;20031;-70
2022/11/02 05:16:53;;;;;;;11.98;2.30;;;;;;;13.58;100.00;101565.91;5277277;28;20048;-70
2022/11/02 05:19:24;;;;;;;8.55;2.35;;;;;;;13.59;100.00;101572.00;5276741;28;20055;-70
2022/11/02 05:21:56;;;;;;;14.60;3.03;;;;;;;13.59;100.00;101574.63;5278430;28;20027;-70
2022/11/02 05:24:27;;;;;;;11.18;2.70;;;;;;;13.45;100.00;101577.63;5278655;28;20044;-70
2022/11/02 05:27:01;;;;;;;12.43;3.35;;;;;;;13.35;100.00;101588.09;5276141;28;20037;-70
2022/11/02 05:29:32;;;;;;;10.88;2.38;;;;;;;13.36;100.00;101584.50;5277911;28;20235;-70
2022/11/02 05:32:03;;;;;;;9.75;2.03;;;;;;;13.36;100.00;101590.59;5277110;28;20024;-71
2022/11/02 05:34:35;;;;;;;7.22;1.92;;;;;;;13.31;100.00;101603.31;5275713;28;20036;-70
2022/11/02 05:37:06;;;;;;;8.93;2.50;;;;;;;13.22;100.00;101604.06;5276114;28;20021;-70
2022/11/02 05:39:37;;;;;;;9.90;2.05;;;;;;;13.24;100.00;101607.44;5276157;28;20036;-70
2022/11/02 05:42:09;;;;;;;8.70;2.15;;;;;;;13.19;100.00;101614.84;5277173;28;20059;-70
2022/11/02 05:44:40;;;;;;;11.35;2.97;;;;;;;13.22;100.00;101619.88;5276600;28;20033;-70
2022/11/02 05:47:11;;;;;;;9.70;2.35;;;;;;;13.17;100.00;101621.19;5277314;28;20389;-70
2022/11/02 05:49:42;;;;;;;12.18;2.22;;;;;;;13.13;100.00;101623.25;5276494;28;20042;-70
2022/11/02 05:52:14;;;;;;;7.68;1.85;;;;;;;13.07;100.00;101636.94;5274638;28;20020;-70
2022/11/02 05:54:45;;;;;;;10.13;2.45;;;;;;;13.07;100.00;101631.66;5276460;28;20052;-70
2022/11/02 05:57:17;;;;;;;8.82;2.08;;;;;;;13.02;100.00;101633.81;5276035;28;20603;-70
2022/11/02 05:59:49;;;;;;;12.80;2.38;;;;;;;13.01;100.00;101629.53;5276431;28;20024;-70
2022/11/02 06:02:20;;;;;;;9.07;2.50;;;;;;;12.95;100.00;101637.91;5274651;28;20081;-71
2022/11/02 06:04:54;;;;;;;12.50;2.30;;;;;;;12.97;100.00;101642.09;5276633;28;20024;-70
2022/11/02 06:07:25;;;;;;;13.45;2.50;;;;;;;12.86;100.00;101645.59;5275744;28;20028;-70
2022/11/02 06:09:57;;;;;;;8.25;2.22;;;;;;;12.81;100.00;101649.56;5274758;28;20051;-71
2022/11/02 06:12:28;;;;;;;9.85;2.33;;;;;;;12.80;100.00;101651.34;5273673;28;20035;-70
2022/11/02 06:14:59;;;;;;;10.85;2.55;;;;;;;12.81;100.00;101668.00;5276441;28;20029;-71
2022/11/02 06:17:40;;;;;;;9.18;2.42;;;;;;;12.95;100.00;101665.03;5276752;28;20029;-71
2022/11/02 06:20:11;;;;;;;10.38;1.90;;;;;;;12.73;100.00;101675.63;5274382;28;20068;-70
2022/11/02 06:22:43;;;;;;;11.77;3.40;;;;;;;12.65;100.00;101665.72;5276386;28;20108;-70
2022/11/02 06:25:15;;;;;;;12.52;2.53;;;;;;;12.69;100.00;101685.59;5273840;28;20759;-73
2022/11/02 06:27:55;;;;;;;9.50;1.92;;;;;;;12.62;100.00;101679.16;5276800;28;20100;-73
2022/11/02 06:30:26;;;;;;;8.63;2.08;;;;;;;12.58;100.00;101683.81;5274169;28;20386;-74
2022/11/02 06:32:58;;;;;;;10.82;2.50;;;;;;;12.65;100.00;101703.41;5275101;28;20020;-74
2022/11/02 06:35:29;;;;;;;8.95;2.70;;;;;;;12.60;100.00;101709.97;5275319;28;20064;-75
2022/11/02 06:38:00;;;;;;;10.10;2.10;;;;;;;12.49;100.00;101710.81;5278530;28;20432;-74
2022/11/02 06:40:32;;;;;;;12.77;2.33;;;;;;;12.52;100.00;101720.25;5276666;28;20412;-75
2022/11/02 06:43:03;;;;;;;8.80;1.95;;;;;;;12.50;100.00;101727.41;5273176;28;20197;-74
2022/11/02 06:45:34;;;;;;;9.07;2.35;;;;;;;12.48;100.00;101730.19;5277494;28;20115;-74
2022/11/02 06:48:05;;;;;;;10.25;2.25;;;;;;;12.49;100.00;101742.34;5278371;28;20017;-74
2022/11/02 06:50:37;;;;;;;10.63;2.13;;;;;;;12.46;100.00;101760.97;5277523;28;20037;-74
2022/11/02 06:53:08;;;;;;;9.68;2.55;;;;;;;12.45;100.00;101755.88;5277506;28;20044;-75
2022/11/02 06:55:39;;;;;;;11.30;2.65;;;;;;;12.42;100.00;101764.81;5277064;28;20490;-75
2022/11/02 06:58:10;;;;;;;15.60;2.97;;;;;;;12.37;100.00;101770.44;5277832;28;20438;-75
2022/11/02 07:00:42;;;;;;;10.18;2.38;;;;;;;12.39;100.00;101784.31;5276038;28;20056;-74
2022/11/02 07:03:13;;;;;;;11.52;2.60;;;;;;;12.40;100.00;101788.59;5275045;28;20016;-75
2022/11/02 07:05:52;;;;;;;10.88;2.33;;;;;;;12.42;100.00;101793.72;5276431;28;20032;-75
2022/11/02 07:08:24;;;;;;;11.82;2.30;;;;;;;12.35;100.00;101798.63;5277442;28;20059;-74
2022/11/02 07:10:56;;;;;;;8.57;1.90;;;;;;;12.37;100.00;101801.97;5277490;28;20503;-75
2022/11/02 07:13:27;;;;;;;9.65;2.20;;;;;;;12.34;100.00;101812.72;5277491;28;20032;-74
2022/11/02 07:15:58;;;;;;;9.93;2.65;;;;;;;12.34;100.00;101809.25;5275511;28;20493;-75
2022/11/02 07:18:29;;;;;;;11.98;2.33;;;;;;;12.35;100.00;101821.41;5276176;28;20093;-75
2022/11/02 07:21:01;;;;;;;10.07;2.65;;;;;;;12.33;100.00;101828.59;5274465;28;20025;-79
2022/11/02 07:23:32;;;;;;;12.77;2.40;;;;;;;12.35;100.00;101831.94;5277123;28;20103;-74
2022/11/02 07:26:04;;;;;;;11.38;2.15;;;;;;;12.36;100.00;101828.38;5277430;28;20021;-74
2022/11/02 07:28:37;;;;;;;9.18;2.22;;;;;;;12.37;100.00;101835.28;5277566;28;20030;-74
2022/11/02 07:31:08;;;;;;;10.65;2.22;;;;;;;12.41;100.00;101845.44;5276359;28;20012;-74
2022/11/02 07:33:40;;;;;;;9.93;2.20;;;;;;;12.37;100.00;101841.38;5276681;28;20568;-74
2022/11/02 07:36:12;;;;;;;11.40;2.28;;;;;;;12.41;100.00;101842.00;5277444;28;20720;-74
2022/11/02 07:38:43;;;;;;;12.00;2.88;;;;;;;12.37;100.00;101853.69;5278051;28;20024;-74
2022/11/02 07:41:14;;;;;;;10.65;2.88;;;;;;;12.38;100.00;101856.19;5276692;28;20023;-74
2022/11/02 07:43:45;;;;;;;10.13;1.90;;;;;;;12.32;100.00;101851.41;5278339;28;20032;-74
2022/11/02 07:46:17;;;;;;;10.88;2.13;;;;;;;12.35;100.00;101856.44;5276996;28;20071;-74
2022/11/02 07:48:48;;;;;;;13.18;2.55;;;;;;;12.38;100.00;101864.06;5276594;28;20028;-74
2022/11/02 07:51:21;;;;;;;10.67;2.70;;;;;;;12.39;100.00;101857.06;5277507;28;20059;-74
2022/11/02 07:53:52;;;;;;;12.45;2.45;;;;;;;12.45;100.00;101877.59;5276691;28;20058;-74
2022/11/02 07:56:23;;;;;;;9.82;2.25;;;;;;;12.40;100.00;101872.69;5278302;28;20055;-74
2022/11/02 07:58:55;;;;;;;13.55;2.13;;;;;;;12.44;100.00;101872.47;5277413;28;20031;-74
2022/11/02 08:01:26;;;;;;;10.18;2.13;;;;;;;12.50;100.00;101878.09;5276910;28;20075;-74
2022/11/02 08:03:57;;;;;;;7.88;2.10;;;;;;;12.49;100.00;101868.50;5275689;28;20029;-74
2022/11/02 08:06:29;;;;;;;10.32;2.45;;;;;;;12.55;100.00;101883.00;5276704;28;20024;-74
2022/11/02 08:09:01;;;;;;;12.18;3.10;;;;;;;12.55;100.00;101870.69;5277038;28;20020;-74
2022/11/02 08:11:33;;;;;;;8.85;2.28;;;;;;;12.61;100.00;101875.47;5277444;28;20648;-74
2022/11/02 08:14:04;;;;;;;7.45;1.98;;;;;;;12.61;100.00;101888.63;5277912;28;20417;-74
2022/11/02 08:16:35;;;;;;;9.63;2.10;;;;;;;12.62;100.00;101878.94;5277428;28;20009;-74
2022/11/02 08:19:07;;;;;;;9.70;1.83;;;;;;;12.63;100.00;101886.69;5277265;28;20017;-74
2022/11/02 08:21:38;;;;;;;9.25;2.17;;;;;;;12.69;100.00;101892.44;5276969;28;20025;-74
2022/11/02 08:24:09;;;;;;;12.57;2.97;;;;;;;12.74;100.00;101895.56;5277096;28;20039;-74
2022/11/02 08:26:40;;;;;;;12.07;2.40;;;;;;;12.80;100.00;101895.91;5276487;28;20028;-74
2022/11/02 08:29:12;;;;;;;10.80;2.05;;;;;;;12.81;100.00;101896.78;5277114;28;20024;-74
2022/11/02 08:31:43;;;;;;;12.32;2.25;;;;;;;12.80;100.00;101893.28;5276093;28;20024;-74
2022/11/02 08:34:14;;;;;;;11.70;2.90;;;;;;;12.84;100.00;101900.00;5277900;28;20047;-74
2022/11/02 08:36:45;;;;;;;9.50;2.20;;;;;;;12.88;100.00;101897.97;5277473;28;20024;-74
2022/11/02 08:39:17;;;;;;;12.30;2.78;;;;;;;12.94;100.00;101901.91;5277270;28;20048;-74
2022/11/02 08:41:48;;;;;;;8.73;2.30;;;;;;;12.99;100.00;101902.38;5278652;28;20032;-74
2022/11/02 08:44:20;;;;;;;12.38;2.15;;;;;;;13.04;100.00;101908.97;5280625;28;20024;-74
2022/11/02 08:46:51;;;;;;;11.07;2.33;;;;;;;13.09;100.00;101919.94;5278191;28;20397;-74
2022/11/02 08:49:22;;;;;;;14.90;2.90;;;;;;;13.14;100.00;101919.59;5281406;28;20059;-74
2022/11/02 08:51:54;;;;;;;10.20;2.13;;;;;;;13.09;100.00;101909.44;5295757;23;20255;-76
2022/11/02 08:54:25;;;;;;;11.63;2.65;;;;;;;13.14;100.00;101916.94;5273683;28;20119;-76
2022/11/02 08:56:56;;;;;;;9.77;2.28;;;;;;;13.13;100.00;101918.75;5280646;28;20023;-76
2022/11/02 08:59:27;;;;;;;10.82;2.40;;;;;;;13.20;100.00;101918.28;5280213;28;20051;-76
2022/11/02 09:01:59;;;;;;;12.27;2.78;;;;;;;13.25;100.00;101922.25;5280317;28;20074;-75
2022/11/02 09:04:30;;;;;;;10.80;2.17;;;;;;;13.28;100.00;101923.81;5279045;28;20296;-76
2022/11/02 09:07:01;;;;;;;10.48;2.97;;;;;;;13.37;100.00;101930.97;5278269;28;20401;-76
2022/11/02 09:09:32;;;;;;;11.60;3.28;;;;;;;13.36;100.00;101922.22;5279788;28;20548;-76
2022/11/02 09:12:04;;;;;;;13.55;2.95;;;;;;;13.37;100.00;101926.56;5279786;28;20495;-76
2022/11/02 09:14:35;;;;;;;10.77;2.50;;;;;;;13.38;100.00;101924.75;5279292;28;20416;-75
2022/11/02 09:17:06;;;;;;;14.85;3.03;;;;;;;13.43;100.00;101934.91;5278502;28;20024;-76
2022/11/02 09:19:38;;;;;;;11.20;2.58;;;;;;;13.36;100.00;101916.97;5279411;28;20029;-76
2022/11/02 09:22:09;;;;;;;12.40;2.92;;;;;;;13.50;100.00;101941.38;5278645;28;20034;-76
2022/11/02 09:24:40;;;;;;;8.93;2.63;;;;;;;13.51;100.00;101938.59;5279589;28;20026;-77
2022/11/02 09:27:11;;;;;;;15.77;3.22;;;;;;;13.58;100.00;101946.84;5280013;28;20025;-76
2022/11/02 09:29:43;;;;;;;11.48;3.28;;;;;;;13.62;100.00;101938.56;5279983;28;20020;-76
2022/11/02 09:32:14;;;;;;;15.38;3.05;;;;;;;13.77;100.00;101947.03;5278613;28;20734;-76
2022/11/02 09:34:46;;;;;;;11.73;2.85;;;;;;;13.75;100.00;101941.09;5279009;28;20025;-76
2022/11/02 09:37:17;;;;;;;14.50;2.97;;;;;;;13.86;100.00;101956.84;5279560;28;20111;-76
2022/11/02 09:39:49;;;;;;;10.70;2.38;;;;;;;13.98;100.00;101949.75;5278900;28;20020;-76
2022/11/02 09:42:43;;;;;;;15.13;3.35;;;;;;;14.33;100.00;101957.38;5278420;28;20033;-76
2022/11/02 09:45:17;;;;;;;11.88;2.88;;;;;;;14.15;100.00;101956.25;5279875;28;20033;-77
2022/11/02 09:47:57;;;;;;;;;;;;;;;14.56;100.00;101944.09;5280468;28;20036;-76
2022/11/02 09:50:45;;;;;;;13.40;3.13;;;;;;;14.38;100.00;101954.34;5277077;28;19958;-76
2022/11/02 09:53:32;;;;;;;15.57;3.53;;;;;;;14.42;100.00;101957.56;5279065;28;20039;-77
2022/11/02 09:56:05;;;;;;;10.52;3.25;;;;;;;14.33;100.00;101953.91;5279301;28;20481;-77
2022/11/02 09:58:39;;;;;;;14.27;2.95;;;;;;;14.44;100.00;101960.94;5277943;28;20025;-76
2022/11/02 10:01:37;;;;;;;12.82;2.83;;;;;;;14.55;100.00;101960.91;5277656;28;20112;-76
2022/11/02 10:04:51;;;;;;;9.48;2.33;;;;;;;14.77;100.00;101955.50;5277343;28;20036;-76
2022/11/02 10:07:41;;;;;;;16.10;3.67;;;;;;;14.79;100.00;101968.53;5277554;28;20028;-76
2022/11/02 10:10:45;;;;;;;12.75;2.42;;;;;;;14.94;100.00;101969.88;5278415;28;20025;-76
2022/11/02 10:13:32;;;;;;;10.55;2.47;;;;;;;14.70;100.00;101967.53;5277738;28;20032;-76
2022/11/02 10:16:12;;;;;;;12.15;2.60;;;;;;;14.72;100.00;101976.13;5277962;28;20032;-76
2022/11/02 10:18:48;;;;;;;14.95;2.58;;;;;;;14.84;100.00;101983.00;5278849;28;20488;-76
2022/11/02 10:21:31;;;;;;;9.15;2.33;;;;;;;14.94;100.00;101985.72;5278347;28;20107;-76
2022/11/02 10:24:20;;;;;;;10.20;2.13;;;;;;;15.16;100.00;101982.06;5277300;28;20020;-77
2022/11/02 10:26:57;;;;;;;14.00;2.80;;;;;;;15.17;100.00;101990.81;5278496;28;20374;-76
2022/11/02 10:29:50;;;;;;;10.30;2.30;;;;;;;15.37;100.00;101979.34;5277970;28;20030;-76
2022/11/02 10:32:22;;;;;;;14.65;2.95;;;;;;;15.28;100.00;101988.91;5277353;28;20031;-76
2022/11/02 10:34:53;;;;;;;13.02;2.70;;;;;;;15.33;100.00;101985.88;5277608;28;20381;-76
2022/11/02 10:37:46;;;;;;;14.55;3.40;;;;;;;15.49;100.00;101985.38;5279282;28;20214;-77
2022/11/02 10:40:43;;;;;;;11.13;3.05;;;;;;;15.57;100.00;101981.09;5278078;28;20362;-76
2022/11/02 10:43:32;;;;;;;11.93;3.13;;;;;;;15.55;100.00;101972.47;5277732;28;20048;-76
2022/11/02 10:46:31;;;;;;;13.40;3.65;;;;;;;15.39;100.00;101990.63;5278320;28;20078;-76
2022/11/02 10:49:16;;;;;;;9.73;2.15;;;;;;;15.42;100.00;101992.16;5277549;28;20024;-76
2022/11/02 10:51:48;;;;;;;8.73;2.40;;;;;;;15.45;100.00;101995.38;5277309;28;20033;-77
2022/11/02 10:54:20;;;;;;;11.80;2.70;;;;;;;15.49;100.00;101988.88;5277635;28;20033;-76
2022/11/02 10:56:51;;;;;;;11.38;2.25;;;;;;;15.53;100.00;101986.78;5278123;28;20024;-77
2022/11/02 10:59:22;;;;;;;11.75;2.22;;;;;;;15.66;100.00;101997.97;5277809;28;20028;-76
2022/11/02 11:01:57;;;;;;;9.38;2.33;;;;;;;15.79;100.00;102005.66;5276750;28;20469;-77
2022/11/02 11:04:30;;;;;;;10.60;2.50;;;;;;;15.68;100.00;102003.13;5277948;28;20473;-76
2022/11/02 11:07:06;;;;;;;;;;;;;;;16.18;100.00;102003.09;5276948;28;20488;-76
2022/11/02 11:09:50;;;;;;;12.48;2.60;;;;;;;15.72;100.00;102002.72;5277281;28;19928;-76
2022/11/02 11:12:39;;;;;;;11.98;2.72;;;;;;;15.91;100.00;102001.94;5276784;28;20485;-77
2022/11/02 11:15:23;;;;;;;10.07;2.33;;;;;;;15.94;100.00;101998.16;5277769;28;20020;-76
2022/11/02 11:17:55;;;;;;;8.27;2.50;;;;;;;15.91;100.00;102007.22;5277101;28;20044;-77
2022/11/02 11:20:38;;;;;;;10.48;2.35;;;;;;;16.11;100.00;102002.78;5275807;28;20390;-76
2022/11/02 11:23:25;;;;;;;8.07;2.20;;;;;;;16.06;100.00;102010.28;5276731;28;20380;-77
2022/11/02 11:25:59;;;;;;;11.45;2.35;;;;;;;16.06;100.00;102002.34;5276959;28;20546;-76
2022/11/02 11:28:52;;;;;;;9.90;2.10;;;;;;;16.39;100.00;102009.03;5277505;28;20032;-76
2022/11/02 11:31:24;;;;;;;12.57;3.23;;;;;;;16.18;100.00;102006.56;5276558;28;20137;-76
2022/11/02 11:33:58;;;;;;;13.15;2.40;;;;;;;16.15;100.00;101998.06;5277374;28;20091;-76
2022/11/02 11:36:33;;;;;;;8.40;2.35;;;;;;;16.12;100.00;101988.59;5277396;28;20485;-76
2022/11/02 11:39:25;;;;;;;10.05;2.20;;;;;;;16.43;100.00;101980.50;5276686;28;20401;-76
2022/11/02 11:41:57;;;;;;;10.68;2.20;;;;;;;16.26;100.00;101980.25;5276039;28;20102;-76
2022/11/02 11:44:29;;;;;;;11.30;2.43;;;;;;;16.37;100.00;101975.81;5275834;28;20489;-77
2022/11/02 11:47:01;;;;;;;9.90;2.10;;;;;;;16.45;100.00;101981.22;5276567;28;20062;-77
2022/11/02 11:49:37;;;;;;;9.73;2.20;;;;;;;16.44;100.00;101974.22;5276754;28;20035;-76
2022/11/02 11:52:17;;;;;;;10.80;2.22;;;;;;;16.72;100.00;101991.06;5275639;28;20040;-76
2022/11/02 11:54:54;;;;;;;7.70;1.80;;;;;;;16.69;100.00;101978.09;5276302;28;20031;-76
2022/11/02 11:57:30;;;;;;;10.13;2.60;;;;;;;16.67;100.00;101993.31;5276413;28;20593;-76
2022/11/02 12:00:26;;;;;;;9.05;2.17;;;;;;;16.83;100.00;102001.50;5276249;28;20055;-78
2022/11/02 12:03:04;;;;;;;10.52;2.80;;;;;;;16.78;100.00;101985.22;5274858;28;20032;-76
2022/11/02 12:06:12;;;;;;;11.70;2.63;;;;;;;17.02;100.00;102000.63;5277121;28;20032;-77